createdAt,value
2018-08-30T00:01:14.134Z,16.40
2018-08-30T00:03:42.248Z,16.20
2018-08-30T00:06:10.381Z,14.80
2018-08-30T00:08:38.512Z,16.50
2018-08-30T00:11:06.721Z,16.80
2018-08-30T00:13:34.848Z,15.33
2018-08-30T00:16:03.000Z,16.10
2018-08-30T00:18:31.142Z,16.00
2018-08-30T00:20:59.257Z,17.70
2018-08-30T00:23:27.491Z,17.07
2018-08-30T00:25:55.637Z,15.55
2018-08-30T00:28:23.832Z,16.25
2018-08-30T00:30:51.990Z,17.45
2018-08-30T00:33:20.124Z,16.65
2018-08-30T00:35:48.259Z,17.87
2018-08-30T00:38:16.395Z,16.65
2018-08-30T00:40:44.564Z,16.70
2018-08-30T00:43:12.686Z,14.83
2018-08-30T00:45:40.803Z,15.43
2018-08-30T00:48:08.915Z,16.95
2018-08-30T00:50:37.096Z,18.87
2018-08-30T00:53:05.413Z,17.57
2018-08-30T00:55:33.586Z,16.07
2018-08-30T00:58:01.810Z,15.53
2018-08-30T01:00:29.969Z,14.55
2018-08-30T01:02:58.102Z,14.78
2018-08-30T01:05:26.915Z,15.83
2018-08-30T01:07:55.070Z,15.43
2018-08-30T01:10:23.176Z,16.07
2018-08-30T01:12:53.259Z,15.08
2018-08-30T01:15:22.392Z,15.37
2018-08-30T01:17:50.508Z,14.53
2018-08-30T01:20:18.874Z,14.55
2018-08-30T01:22:47.037Z,15.63
2018-08-30T01:25:15.231Z,14.38
2018-08-30T01:27:43.373Z,14.90
2018-08-30T01:30:11.523Z,13.35
2018-08-30T01:32:39.673Z,14.03
2018-08-30T01:35:07.949Z,13.62
2018-08-30T01:37:36.125Z,14.87
2018-08-30T01:40:04.271Z,13.00
2018-08-30T01:42:32.389Z,14.40
2018-08-30T01:45:00.564Z,14.57
2018-08-30T01:47:28.705Z,19.03
2018-08-30T01:49:56.872Z,13.72
2018-08-30T01:52:25.011Z,12.90
2018-08-30T01:54:53.144Z,13.37
2018-08-30T01:57:21.350Z,13.60
2018-08-30T01:59:49.477Z,14.95
2018-08-30T02:02:17.626Z,14.47
2018-08-30T02:04:45.780Z,13.55
2018-08-30T02:07:13.977Z,16.57
2018-08-30T02:09:42.183Z,14.40
2018-08-30T02:12:10.392Z,14.68
2018-08-30T02:14:38.512Z,15.08
2018-08-30T02:17:06.685Z,15.55
2018-08-30T02:19:34.804Z,15.03
2018-08-30T02:22:02.985Z,17.20
2018-08-30T02:24:31.136Z,14.63
2018-08-30T02:26:59.269Z,15.03
2018-08-30T02:29:27.428Z,14.23
2018-08-30T02:31:55.591Z,14.03
2018-08-30T02:34:23.735Z,15.43
2018-08-30T02:36:51.899Z,13.50
2018-08-30T02:39:20.041Z,13.67
2018-08-30T02:41:48.188Z,13.83
2018-08-30T02:44:16.332Z,15.10
2018-08-30T02:46:44.467Z,13.80
2018-08-30T02:49:12.605Z,14.23
2018-08-30T02:51:40.694Z,13.80
2018-08-30T02:54:08.812Z,14.43
2018-08-30T02:56:36.950Z,14.30
2018-08-30T02:59:05.094Z,15.00
2018-08-30T03:01:33.214Z,15.67
2018-08-30T03:04:01.385Z,13.70
2018-08-30T03:06:29.517Z,15.80
2018-08-30T03:08:57.703Z,16.33
2018-08-30T03:11:25.876Z,15.73
2018-08-30T03:13:54.040Z,15.90
2018-08-30T03:16:22.249Z,14.63
2018-08-30T03:18:50.320Z,17.60
2018-08-30T03:21:18.474Z,15.08
2018-08-30T03:23:46.607Z,14.13
2018-08-30T03:26:14.772Z,15.60
2018-08-30T03:28:42.869Z,16.67
2018-08-30T03:31:10.976Z,14.50
2018-08-30T03:33:39.149Z,13.80
2018-08-30T03:36:07.289Z,13.73
2018-08-30T03:38:35.388Z,13.40
2018-08-30T03:41:03.572Z,14.75
2018-08-30T03:43:31.749Z,13.93
2018-08-30T03:45:59.912Z,14.87
2018-08-30T03:48:28.044Z,14.73
2018-08-30T03:50:56.220Z,12.87
2018-08-30T03:53:24.349Z,14.50
2018-08-30T03:55:52.478Z,14.17
2018-08-30T03:58:20.687Z,12.87
2018-08-30T04:00:48.795Z,13.70
2018-08-30T04:03:16.974Z,18.17
2018-08-30T04:05:45.181Z,13.80
2018-08-30T04:08:13.316Z,13.70
2018-08-30T04:10:41.460Z,13.87
2018-08-30T04:13:09.618Z,14.03
2018-08-30T04:15:37.756Z,12.37
2018-08-30T04:18:05.925Z,13.70
2018-08-30T04:20:34.024Z,14.73
2018-08-30T04:23:02.151Z,14.93
2018-08-30T04:25:30.266Z,17.80
2018-08-30T04:27:58.362Z,14.17
2018-08-30T04:30:27.016Z,17.43
2018-08-30T04:32:55.150Z,14.60
2018-08-30T04:35:23.351Z,13.83
2018-08-30T04:37:51.442Z,16.07
2018-08-30T04:40:19.581Z,13.27
2018-08-30T04:42:47.799Z,16.10
2018-08-30T04:45:15.981Z,12.40
2018-08-30T04:47:44.109Z,14.23
2018-08-30T04:50:12.246Z,14.87
2018-08-30T04:52:40.462Z,17.33
2018-08-30T04:55:08.584Z,15.87
2018-08-30T04:57:36.753Z,13.73
2018-08-30T05:00:04.997Z,14.47
2018-08-30T05:02:33.146Z,13.27
2018-08-30T05:05:01.340Z,14.17
2018-08-30T05:07:29.562Z,14.70
2018-08-30T05:09:57.750Z,13.60
2018-08-30T05:12:25.902Z,13.07
2018-08-30T05:14:54.051Z,13.17
2018-08-30T05:17:22.140Z,11.87
2018-08-30T05:19:50.273Z,13.27
2018-08-30T05:22:18.542Z,13.97
2018-08-30T05:24:46.721Z,13.23
2018-08-30T05:27:14.977Z,13.67
2018-08-30T05:29:43.121Z,15.63
2018-08-30T05:32:11.342Z,14.43
2018-08-30T05:34:39.457Z,13.67
2018-08-30T05:37:07.584Z,15.07
2018-08-30T05:39:35.754Z,14.10
2018-08-30T05:42:03.872Z,17.30
2018-08-30T05:44:32.062Z,14.50
2018-08-30T05:47:00.186Z,14.87
2018-08-30T05:49:28.314Z,13.60
2018-08-30T05:51:56.500Z,13.87
2018-08-30T05:54:24.662Z,15.27
2018-08-30T05:56:52.780Z,13.37
2018-08-30T05:59:21.821Z,12.73
2018-08-30T06:01:49.945Z,13.83
2018-08-30T06:04:18.102Z,13.27
2018-08-30T06:06:46.301Z,14.63
2018-08-30T06:09:14.462Z,14.97
2018-08-30T06:11:42.610Z,15.93
2018-08-30T06:14:10.794Z,18.70
2018-08-30T06:16:38.857Z,14.40
2018-08-30T06:19:07.006Z,14.10
2018-08-30T06:21:35.092Z,16.97
2018-08-30T06:24:03.283Z,15.73
2018-08-30T06:26:31.408Z,16.13
2018-08-30T06:28:59.517Z,26.53
2018-08-30T06:31:27.623Z,15.80
2018-08-30T06:33:55.728Z,15.90
2018-08-30T06:36:23.842Z,18.33
2018-08-30T06:38:52.065Z,14.23
2018-08-30T06:41:20.049Z,14.90
2018-08-30T06:43:48.181Z,16.60
2018-08-30T06:46:16.291Z,22.40
2018-08-30T06:48:44.477Z,21.60
2018-08-30T06:51:12.668Z,20.40
2018-08-30T06:53:40.889Z,19.30
2018-08-30T06:56:09.012Z,18.43
2018-08-30T06:58:37.176Z,16.73
2018-08-30T07:01:05.312Z,15.60
2018-08-30T07:03:33.441Z,18.47
2018-08-30T07:06:01.540Z,18.83
2018-08-30T07:08:29.658Z,18.53
2018-08-30T07:10:57.743Z,21.43
2018-08-30T07:13:25.830Z,24.20
2018-08-30T07:15:53.942Z,18.13
2018-08-30T07:18:22.248Z,17.37
2018-08-30T07:20:50.332Z,20.57
2018-08-30T07:23:18.500Z,19.30
2018-08-30T07:25:46.650Z,19.10
2018-08-30T07:28:14.985Z,17.90
2018-08-30T07:30:43.077Z,19.47
2018-08-30T07:33:11.162Z,19.60
2018-08-30T07:35:39.289Z,20.03
2018-08-30T07:38:07.509Z,20.67
2018-08-30T07:40:35.620Z,18.20
2018-08-30T07:43:03.744Z,18.00
2018-08-30T07:45:31.848Z,18.53
2018-08-30T07:48:00.022Z,20.23
2018-08-30T07:50:28.141Z,17.67
2018-08-30T07:52:56.473Z,19.30
2018-08-30T07:55:24.610Z,18.93
2018-08-30T07:57:52.758Z,18.60
2018-08-30T08:00:20.928Z,17.60
2018-08-30T08:02:49.107Z,20.80
2018-08-30T08:05:17.250Z,19.87
2018-08-30T08:07:45.335Z,19.27
2018-08-30T08:10:13.452Z,20.03
2018-08-30T08:12:41.577Z,19.03
2018-08-30T08:15:09.646Z,18.30
2018-08-30T08:17:37.790Z,19.20
2018-08-30T08:20:05.985Z,19.30
2018-08-30T08:22:34.075Z,18.70
2018-08-30T08:25:02.214Z,19.63
2018-08-30T08:27:30.347Z,19.90
2018-08-30T08:29:58.452Z,20.73
2018-08-30T08:32:26.544Z,23.97
2018-08-30T08:34:54.688Z,23.00
2018-08-30T08:37:22.795Z,24.93
2018-08-30T08:39:50.895Z,27.93
2018-08-30T08:42:18.984Z,27.80
2018-08-30T08:44:47.117Z,33.47
2018-08-30T08:47:15.657Z,35.37
2018-08-30T08:49:43.747Z,30.30
2018-08-30T08:52:11.903Z,33.97
2018-08-30T08:54:40.054Z,39.70
2018-08-30T08:57:08.474Z,36.33
2018-08-30T08:59:36.575Z,38.77
2018-08-30T09:02:04.716Z,42.77
2018-08-30T09:04:32.816Z,41.33
2018-08-30T09:07:01.019Z,41.97
2018-08-30T09:09:29.121Z,38.67
2018-08-30T09:11:57.208Z,42.33
2018-08-30T09:14:25.343Z,37.33
2018-08-30T09:16:53.478Z,44.03
2018-08-30T09:19:21.600Z,48.33
2018-08-30T09:21:49.699Z,41.60
2018-08-30T09:24:17.800Z,41.23
2018-08-30T09:26:45.948Z,39.20
2018-08-30T09:29:14.068Z,42.77
2018-08-30T09:31:42.196Z,51.50
2018-08-30T09:34:10.336Z,51.70
2018-08-30T09:36:38.493Z,39.37
2018-08-30T09:39:07.419Z,39.43
2018-08-30T09:41:35.495Z,51.50
2018-08-30T09:44:03.606Z,44.33
2018-08-30T09:46:31.720Z,47.97
2018-08-30T09:48:59.874Z,54.67
2018-08-30T09:51:28.033Z,50.30
2018-08-30T09:53:56.508Z,49.63
2018-08-30T09:56:24.632Z,50.47
2018-08-30T09:58:52.747Z,44.20
2018-08-30T10:01:26.311Z,40.90
2018-08-30T10:03:54.522Z,40.30
2018-08-30T10:06:22.598Z,42.10
2018-08-30T10:08:50.679Z,35.17
2018-08-30T10:11:18.781Z,45.73
2018-08-30T10:13:46.929Z,42.40
2018-08-30T10:16:15.106Z,59.80
2018-08-30T10:18:43.218Z,51.90
2018-08-30T10:21:11.363Z,53.00
2018-08-30T10:23:39.481Z,63.20
2018-08-30T10:26:07.615Z,69.50
2018-08-30T10:28:35.750Z,58.77
2018-08-30T10:31:03.925Z,62.73
2018-08-30T10:33:32.104Z,59.90
2018-08-30T10:36:00.236Z,73.57
2018-08-30T10:38:28.332Z,52.20
2018-08-30T10:40:56.478Z,59.70
2018-08-30T10:43:24.612Z,60.20
2018-08-30T10:45:52.759Z,66.97
2018-08-30T10:48:20.877Z,64.20
2018-08-30T10:50:49.042Z,79.43
2018-08-30T10:53:17.168Z,62.60
2018-08-30T10:55:45.348Z,81.03
2018-08-30T10:58:13.462Z,55.40
2018-08-30T11:00:41.535Z,54.63
2018-08-30T11:03:09.652Z,65.57
2018-08-30T11:05:37.819Z,60.53
2018-08-30T11:08:06.037Z,64.93
2018-08-30T11:10:34.185Z,59.17
2018-08-30T11:13:02.426Z,66.00
2018-08-30T11:15:30.473Z,67.57
2018-08-30T11:17:58.593Z,59.33
2018-08-30T11:20:26.696Z,59.37
2018-08-30T11:22:54.775Z,55.57
2018-08-30T11:25:22.877Z,53.33
2018-08-30T11:27:50.951Z,60.77
2018-08-30T11:30:19.082Z,60.40
2018-08-30T11:32:47.167Z,65.50
2018-08-30T11:35:15.275Z,49.20
2018-08-30T11:37:43.455Z,59.67
2018-08-30T11:40:11.570Z,66.57
2018-08-30T11:42:39.664Z,55.90
2018-08-30T11:45:08.272Z,81.17
2018-08-30T11:47:36.333Z,84.53
2018-08-30T11:50:04.500Z,65.60
2018-08-30T11:52:32.671Z,68.57
2018-08-30T11:55:00.805Z,75.37
2018-08-30T11:57:28.919Z,61.67
2018-08-30T11:59:57.093Z,70.33
2018-08-30T12:02:25.242Z,57.60
2018-08-30T12:04:53.469Z,60.83
2018-08-30T12:07:21.561Z,53.23
2018-08-30T12:09:49.757Z,58.53
2018-08-30T12:12:17.905Z,54.73
2018-08-30T12:14:46.033Z,54.60
2018-08-30T12:17:14.138Z,50.83
2018-08-30T12:19:42.236Z,46.07
2018-08-30T12:22:10.331Z,40.53
2018-08-30T12:24:38.481Z,48.30
2018-08-30T12:27:06.588Z,45.20
2018-08-30T12:29:34.747Z,50.23
2018-08-30T12:32:02.906Z,56.47
2018-08-30T12:34:31.016Z,31.30
2018-08-30T12:36:59.201Z,30.53
2018-08-30T12:39:27.281Z,24.83
2018-08-30T12:41:55.449Z,28.60
2018-08-30T12:44:23.561Z,27.33
2018-08-30T12:46:51.707Z,23.87
2018-08-30T12:49:19.846Z,26.90
2018-08-30T12:51:48.131Z,24.60
2018-08-30T12:54:16.235Z,18.60
2018-08-30T12:56:44.400Z,22.00
2018-08-30T12:59:16.971Z,15.73
2018-08-30T13:01:45.657Z,19.60
2018-08-30T13:04:13.725Z,17.90
2018-08-30T13:06:45.496Z,16.40
2018-08-30T13:09:14.642Z,15.87
2018-08-30T13:11:42.772Z,11.60
2018-08-30T13:14:10.991Z,15.43
2018-08-30T13:16:38.956Z,13.80
2018-08-30T13:19:07.302Z,14.37
2018-08-30T13:21:35.238Z,14.57
2018-08-30T13:24:03.543Z,13.30
2018-08-30T13:26:31.647Z,16.10
2018-08-30T13:28:59.990Z,13.70
2018-08-30T13:31:28.073Z,16.93
2018-08-30T13:33:56.316Z,15.67
2018-08-30T13:36:24.491Z,18.00
2018-08-30T13:38:52.352Z,16.03
2018-08-30T13:41:20.771Z,15.03
2018-08-30T13:43:48.724Z,12.63
2018-08-30T13:46:16.619Z,14.33
2018-08-30T13:48:45.250Z,9.60
2018-08-30T13:51:13.516Z,9.23
2018-08-30T13:53:41.594Z,9.97
2018-08-30T13:56:09.927Z,10.00
2018-08-30T13:58:38.259Z,9.87
2018-08-30T14:01:06.500Z,10.90
2018-08-30T14:03:34.493Z,10.07
2018-08-30T14:06:03.160Z,11.63
2018-08-30T14:08:31.230Z,11.30
2018-08-30T14:10:59.426Z,12.80
2018-08-30T14:13:28.007Z,13.00
2018-08-30T14:15:55.794Z,10.77
2018-08-30T14:18:23.909Z,13.40
2018-08-30T14:20:52.100Z,12.93
2018-08-30T14:23:20.117Z,14.27
2018-08-30T14:25:48.255Z,12.60
2018-08-30T14:28:16.386Z,12.50
2018-08-30T14:30:44.560Z,13.33
2018-08-30T14:33:12.912Z,13.87
2018-08-30T14:35:40.924Z,15.03
2018-08-30T14:38:09.050Z,14.00
2018-08-30T14:40:37.317Z,12.80
2018-08-30T14:43:05.583Z,16.37
2018-08-30T14:45:33.699Z,15.00
2018-08-30T14:48:01.979Z,14.13
2018-08-30T14:50:30.026Z,16.37
2018-08-30T14:52:58.108Z,17.33
2018-08-30T14:55:26.211Z,13.10
2018-08-30T14:57:54.405Z,16.37
2018-08-30T15:00:22.704Z,14.77
2018-08-30T15:02:50.833Z,14.10
2018-08-30T15:05:19.086Z,13.27
2018-08-30T15:07:47.224Z,12.90
2018-08-30T15:10:15.480Z,12.53
2018-08-30T15:12:43.505Z,14.20
2018-08-30T15:15:11.609Z,10.90
2018-08-30T15:17:39.928Z,12.43
2018-08-30T15:20:08.095Z,14.07
2018-08-30T15:22:36.406Z,12.13
2018-08-30T15:25:04.759Z,13.47
2018-08-30T15:27:32.996Z,13.08
2018-08-30T15:30:01.170Z,12.47
2018-08-30T15:32:29.369Z,13.27
2018-08-30T15:34:57.500Z,13.13
2018-08-30T15:37:27.203Z,12.13
2018-08-30T15:39:55.410Z,13.43
2018-08-30T15:42:23.667Z,11.13
2018-08-30T15:44:51.776Z,14.53
2018-08-30T15:47:19.982Z,13.23
2018-08-30T15:49:48.038Z,12.97
2018-08-30T15:52:16.193Z,14.00
2018-08-30T15:54:44.538Z,12.60
2018-08-30T15:57:12.707Z,14.97
2018-08-30T15:59:42.005Z,12.27
2018-08-30T16:02:10.143Z,14.57
2018-08-30T16:04:38.321Z,16.97
2018-08-30T16:07:06.437Z,15.20
2018-08-30T16:09:34.671Z,15.33
2018-08-30T16:12:03.090Z,15.17
2018-08-30T16:14:31.221Z,15.53
2018-08-30T16:16:59.422Z,13.23
2018-08-30T16:19:27.574Z,15.40
2018-08-30T16:21:55.829Z,14.20
2018-08-30T16:24:24.053Z,15.17
2018-08-30T16:26:52.184Z,13.47
2018-08-30T16:29:20.594Z,14.50
2018-08-30T16:31:48.694Z,14.90
2018-08-30T16:34:16.908Z,15.30
2018-08-30T16:36:45.006Z,13.80
2018-08-30T16:39:13.165Z,16.47
2018-08-30T16:41:41.874Z,14.17
2018-08-30T16:44:10.626Z,14.67
2018-08-30T16:46:39.943Z,14.60
2018-08-30T16:49:11.072Z,15.80
2018-08-30T16:51:39.215Z,17.47
2018-08-30T16:54:07.421Z,15.77
2018-08-30T16:56:35.504Z,14.70
2018-08-30T16:59:03.712Z,15.00
2018-08-30T17:01:31.759Z,16.00
2018-08-30T17:03:59.961Z,16.90
2018-08-30T17:06:28.162Z,17.57
2018-08-30T17:08:56.471Z,15.07
2018-08-30T17:11:24.805Z,17.03
2018-08-30T17:13:53.236Z,15.90
2018-08-30T17:16:21.652Z,16.30
2018-08-30T17:18:51.638Z,14.63
2018-08-30T17:21:19.769Z,14.40
2018-08-30T17:23:47.923Z,19.57
2018-08-30T17:26:16.043Z,16.70
2018-08-30T17:28:44.212Z,16.90
2018-08-30T17:31:12.420Z,15.93
2018-08-30T17:33:41.026Z,15.77
2018-08-30T17:36:10.330Z,15.77
2018-08-30T17:38:38.501Z,16.23
2018-08-30T17:41:06.636Z,15.33
2018-08-30T17:43:34.784Z,12.70
2018-08-30T17:46:03.016Z,17.77
2018-08-30T17:48:31.255Z,15.90
2018-08-30T17:50:59.655Z,16.60
2018-08-30T17:53:27.932Z,15.20
2018-08-30T17:55:56.202Z,14.77
2018-08-30T17:58:24.353Z,16.20
2018-08-30T18:00:52.550Z,16.73
2018-08-30T18:03:23.076Z,15.93
2018-08-30T18:05:51.185Z,17.73
2018-08-30T18:08:19.316Z,17.13
2018-08-30T18:10:47.440Z,18.80
2018-08-30T18:13:15.557Z,17.97
2018-08-30T18:15:43.687Z,18.10
2018-08-30T18:18:11.887Z,17.47
2018-08-30T18:20:40.012Z,15.57
2018-08-30T18:23:08.187Z,17.73
2018-08-30T18:25:36.296Z,16.93
2018-08-30T18:28:04.513Z,17.70
2018-08-30T18:30:32.666Z,15.93
2018-08-30T18:33:00.787Z,15.60
2018-08-30T18:35:28.970Z,16.87
2018-08-30T18:37:57.146Z,16.17
2018-08-30T18:40:25.368Z,15.33
2018-08-30T18:42:53.517Z,14.47
2018-08-30T18:45:21.652Z,15.97
2018-08-30T18:47:49.792Z,15.27
2018-08-30T18:50:17.925Z,14.80
2018-08-30T18:52:46.069Z,16.07
2018-08-30T18:55:14.170Z,15.47
2018-08-30T18:57:42.293Z,15.80
2018-08-30T19:00:11.401Z,15.83
2018-08-30T19:02:39.553Z,13.20
2018-08-30T19:05:07.739Z,15.50
2018-08-30T19:07:35.902Z,15.37
2018-08-30T19:10:04.098Z,15.50
2018-08-30T19:12:32.244Z,16.37
2018-08-30T19:15:04.500Z,13.70
2018-08-30T19:17:38.205Z,17.30
2018-08-30T19:20:06.435Z,14.90
2018-08-30T19:22:34.567Z,15.43
2018-08-30T19:25:08.248Z,12.60
2018-08-30T19:27:36.338Z,14.07
2018-08-30T19:30:09.865Z,14.73
2018-08-30T19:32:38.095Z,15.03
2018-08-30T19:35:11.617Z,13.10
2018-08-30T19:37:39.798Z,14.13
2018-08-30T19:40:12.885Z,13.60
2018-08-30T19:42:41.097Z,12.47
2018-08-30T19:45:09.271Z,11.40
2018-08-30T19:47:37.392Z,10.83
2018-08-30T19:50:05.624Z,12.53
2018-08-30T19:52:33.911Z,10.65
2018-08-30T19:55:01.997Z,11.75
2018-08-30T19:57:30.170Z,11.90
2018-08-30T19:59:58.624Z,9.88
2018-08-30T20:02:26.876Z,10.08
2018-08-30T20:04:55.265Z,11.03
2018-08-30T20:07:23.614Z,12.07
2018-08-30T20:09:51.834Z,13.62
2018-08-30T20:12:19.960Z,16.17
2018-08-30T20:14:48.429Z,14.30
2018-08-30T20:17:16.556Z,14.07
2018-08-30T20:19:44.701Z,13.85
2018-08-30T20:22:13.194Z,14.28
2018-08-30T20:24:41.738Z,12.27
2018-08-30T20:27:10.337Z,12.73
2018-08-30T20:29:38.654Z,14.07
2018-08-30T20:32:06.930Z,12.83
2018-08-30T20:34:35.169Z,14.85
2018-08-30T20:37:03.371Z,14.43
2018-08-30T20:39:31.519Z,13.88
2018-08-30T20:41:59.737Z,14.45
2018-08-30T20:44:27.856Z,13.10
2018-08-30T20:46:56.036Z,14.90
2018-08-30T20:49:24.217Z,13.50
2018-08-30T20:51:52.528Z,11.80
2018-08-30T20:54:20.770Z,13.58
2018-08-30T20:56:48.927Z,14.23
2018-08-30T20:59:17.092Z,14.03
2018-08-30T21:01:45.288Z,12.60
2018-08-30T21:04:13.449Z,12.17
2018-08-30T21:06:41.650Z,11.93
2018-08-30T21:09:10.478Z,10.35
2018-08-30T21:11:38.988Z,12.03
2018-08-30T21:14:07.228Z,11.05
2018-08-30T21:16:35.497Z,12.82
2018-08-30T21:19:03.862Z,11.68
2018-08-30T21:21:32.647Z,11.53
2018-08-30T21:24:00.835Z,10.68
2018-08-30T21:26:29.863Z,9.60
2018-08-30T21:28:58.043Z,10.80
2018-08-30T21:31:26.759Z,10.03
2018-08-30T21:33:55.034Z,10.60
2018-08-30T21:36:23.193Z,11.28
2018-08-30T21:38:51.420Z,11.90
2018-08-30T21:41:19.511Z,10.63
2018-08-30T21:43:47.668Z,9.30
2018-08-30T21:46:15.926Z,8.93
2018-08-30T21:48:44.091Z,10.60
2018-08-30T21:51:12.536Z,9.85
2018-08-30T21:53:40.713Z,12.60
2018-08-30T21:56:08.852Z,10.15
2018-08-30T21:58:37.022Z,11.10
2018-08-30T22:01:05.194Z,9.68
2018-08-30T22:03:33.406Z,10.45
2018-08-30T22:06:01.512Z,10.90
2018-08-30T22:08:29.658Z,12.00
2018-08-30T22:10:57.801Z,10.80
2018-08-30T22:13:25.927Z,9.60
2018-08-30T22:15:54.097Z,11.73
2018-08-30T22:18:22.251Z,11.08
2018-08-30T22:20:50.450Z,10.38
2018-08-30T22:23:18.588Z,11.55
2018-08-30T22:25:46.728Z,10.40
2018-08-30T22:28:14.905Z,10.82
2018-08-30T22:30:43.085Z,10.25
2018-08-30T22:33:11.261Z,10.32
2018-08-30T22:35:39.445Z,11.75
2018-08-30T22:38:07.595Z,11.85
2018-08-30T22:40:35.760Z,11.40
2018-08-30T22:43:03.856Z,12.30
2018-08-30T22:45:32.032Z,10.40
2018-08-30T22:48:00.213Z,11.03
2018-08-30T22:50:28.368Z,12.88
2018-08-30T22:52:56.575Z,13.43
2018-08-30T22:55:24.794Z,12.05
2018-08-30T22:57:52.928Z,11.83
2018-08-30T23:00:21.101Z,12.68
2018-08-30T23:02:49.233Z,11.15
2018-08-30T23:05:17.340Z,13.10
2018-08-30T23:07:45.478Z,12.73
2018-08-30T23:10:13.681Z,13.50
2018-08-30T23:12:41.833Z,12.47
2018-08-30T23:15:10.000Z,12.90
2018-08-30T23:17:38.190Z,11.78
2018-08-30T23:20:06.365Z,13.38
2018-08-30T23:22:34.672Z,12.13
2018-08-30T23:25:02.868Z,13.32
2018-08-30T23:27:31.039Z,12.18
2018-08-30T23:29:59.368Z,13.20
2018-08-30T23:32:27.523Z,11.00
2018-08-30T23:34:55.684Z,11.22
2018-08-30T23:37:23.902Z,11.60
2018-08-30T23:39:52.083Z,10.85
2018-08-30T23:42:20.274Z,12.37
2018-08-30T23:44:48.429Z,13.40
2018-08-30T23:47:16.592Z,11.93
2018-08-30T23:49:44.817Z,13.68
2018-08-30T23:52:12.948Z,12.80
2018-08-30T23:54:41.112Z,11.90
2018-08-30T23:57:09.302Z,10.45
2018-08-30T23:59:48.876Z,9.68
